createdAt,value
2018-04-19T00:01:10.592Z,102786.81
2018-04-19T00:03:36.590Z,102787.20
2018-04-19T00:06:03.401Z,102777.11
2018-04-19T00:08:29.299Z,102783.23
2018-04-19T00:10:55.601Z,102778.41
2018-04-19T00:13:21.472Z,102774.41
2018-04-19T00:15:47.459Z,102779.67
2018-04-19T00:18:14.530Z,102776.16
2018-04-19T00:20:40.468Z,102783.16
2018-04-19T00:23:06.300Z,102786.19
2018-04-19T00:25:32.215Z,102783.10
2018-04-19T00:27:58.171Z,102783.08
2018-04-19T00:30:24.261Z,102794.04
2018-04-19T00:32:50.204Z,102795.34
2018-04-19T00:35:16.068Z,102793.13
2018-04-19T00:37:41.948Z,102798.84
2018-04-19T00:40:08.252Z,102804.95
2018-04-19T00:42:34.191Z,102788.27
2018-04-19T00:45:00.067Z,102804.05
2018-04-19T00:47:25.972Z,102798.34
2018-04-19T00:49:51.953Z,102787.33
2018-04-19T00:52:18.023Z,102797.89
2018-04-19T00:54:44.313Z,102798.28
2018-04-19T00:57:10.224Z,102796.11
2018-04-19T00:59:36.089Z,102793.88
2018-04-19T01:02:01.996Z,102791.25
2018-04-19T01:04:27.963Z,102789.92
2018-04-19T01:06:53.876Z,102792.97
2018-04-19T01:09:20.124Z,102787.69
2018-04-19T01:11:46.006Z,102781.91
2018-04-19T01:14:11.963Z,102784.95
2018-04-19T01:16:37.989Z,102786.25
2018-04-19T01:19:03.919Z,102776.16
2018-04-19T01:21:29.874Z,102780.95
2018-04-19T01:23:55.799Z,102772.61
2018-04-19T01:26:21.713Z,102777.41
2018-04-19T01:28:47.700Z,102769.97
2018-04-19T01:31:13.676Z,102771.30
2018-04-19T01:33:39.563Z,102766.88
2018-04-19T01:36:18.876Z,102763.36
2018-04-19T01:38:44.764Z,102765.94
2018-04-19T01:41:10.745Z,102765.94
2018-04-19T01:43:36.765Z,102768.49
2018-04-19T01:46:02.644Z,102772.39
2018-04-19T01:48:28.524Z,102766.70
2018-04-19T01:50:55.341Z,102763.19
2018-04-19T01:53:21.307Z,102763.58
2018-04-19T01:55:47.219Z,102759.16
2018-04-19T01:58:13.136Z,102763.11
2018-04-19T02:00:39.016Z,102754.31
2018-04-19T02:03:04.894Z,102754.31
2018-04-19T02:05:31.357Z,102756.45
2018-04-19T02:07:57.301Z,102754.21
2018-04-19T02:10:23.184Z,102753.31
2018-04-19T02:12:49.092Z,102758.11
2018-04-19T02:15:14.969Z,102762.02
2018-04-19T02:17:40.947Z,102751.48
2018-04-19T02:20:06.937Z,102753.22
2018-04-19T02:22:32.835Z,102749.72
2018-04-19T02:24:58.707Z,102751.93
2018-04-19T02:27:24.779Z,102754.98
2018-04-19T02:29:50.731Z,102741.14
2018-04-19T02:32:16.656Z,102744.20
2018-04-19T02:34:42.900Z,102748.53
2018-04-19T02:37:08.784Z,102741.45
2018-04-19T02:39:34.673Z,102742.70
2018-04-19T02:42:00.710Z,102749.67
2018-04-19T02:44:26.649Z,102742.61
2018-04-19T02:46:52.526Z,102738.20
2018-04-19T02:49:18.465Z,102739.53
2018-04-19T02:51:44.324Z,102745.54
2018-04-19T02:54:10.327Z,102745.93
2018-04-19T02:56:36.532Z,102745.03
2018-04-19T02:59:02.416Z,102745.89
2018-04-19T03:01:28.281Z,102742.36
2018-04-19T03:03:54.218Z,102739.17
2018-04-19T03:06:20.213Z,102743.12
2018-04-19T03:08:46.159Z,102734.39
2018-04-19T03:11:12.066Z,102733.48
2018-04-19T03:13:37.932Z,102733.84
2018-04-19T03:16:03.830Z,102728.13
2018-04-19T03:18:29.869Z,102739.54
2018-04-19T03:20:55.811Z,102743.78
2018-04-19T03:23:21.696Z,102741.05
2018-04-19T03:25:47.594Z,102743.66
2018-04-19T03:28:14.227Z,102745.85
2018-04-19T03:30:40.180Z,102744.51
2018-04-19T03:33:06.885Z,102742.47
2018-04-19T03:35:32.809Z,102744.94
2018-04-19T03:37:58.711Z,102744.96
2018-04-19T03:40:24.632Z,102740.50
2018-04-19T03:42:50.592Z,102742.64
2018-04-19T03:45:16.516Z,102747.08
2018-04-19T03:47:42.785Z,102744.41
2018-04-19T03:50:08.689Z,102745.70
2018-04-19T03:52:34.579Z,102742.19
2018-04-19T03:55:00.575Z,102737.83
2018-04-19T03:57:26.520Z,102736.94
2018-04-19T03:59:52.418Z,102741.75
2018-04-19T04:02:18.345Z,102740.38
2018-04-19T04:04:44.207Z,102735.16
2018-04-19T04:07:10.139Z,102740.01
2018-04-19T04:09:36.099Z,102739.13
2018-04-19T04:12:01.974Z,102750.41
2018-04-19T04:14:27.903Z,102743.81
2018-04-19T04:17:06.187Z,102756.07
2018-04-19T04:19:45.701Z,102753.02
2018-04-19T04:22:23.977Z,102747.41
2018-04-19T04:24:51.645Z,102750.94
2018-04-19T04:27:17.515Z,102742.59
2018-04-19T04:29:43.521Z,102746.05
2018-04-19T04:32:09.440Z,102749.66
2018-04-19T04:34:35.336Z,102747.98
2018-04-19T04:37:01.269Z,102754.14
2018-04-19T04:39:27.157Z,102755.48
2018-04-19T04:41:53.171Z,102755.59
2018-04-19T04:44:19.205Z,102751.70
2018-04-19T04:46:45.107Z,102755.27
2018-04-19T04:49:11.019Z,102754.52
2018-04-19T04:51:36.999Z,102759.88
2018-04-19T04:54:03.008Z,102762.59
2018-04-19T04:56:28.915Z,102760.00
2018-04-19T04:58:54.838Z,102768.87
2018-04-19T05:01:20.712Z,102767.16
2018-04-19T05:03:46.636Z,102765.48
2018-04-19T05:06:12.730Z,102773.91
2018-04-19T05:08:39.642Z,102771.78
2018-04-19T05:11:05.503Z,102762.26
2018-04-19T05:13:31.421Z,102769.45
2018-04-19T05:15:57.327Z,102767.79
2018-04-19T05:18:23.354Z,102768.75
2018-04-19T05:20:49.312Z,102770.16
2018-04-19T05:23:15.252Z,102768.95
2018-04-19T05:25:41.114Z,102769.05
2018-04-19T05:28:07.055Z,102774.45
2018-04-19T05:30:33.847Z,102781.58
2018-04-19T05:32:59.784Z,102780.82
2018-04-19T05:35:25.695Z,102774.72
2018-04-19T05:37:51.574Z,102778.79
2018-04-19T05:40:17.430Z,102783.25
2018-04-19T05:42:43.416Z,102785.97
2018-04-19T05:45:09.356Z,102788.23
2018-04-19T05:47:35.227Z,102797.09
2018-04-19T05:50:01.148Z,102797.14
2018-04-19T05:52:27.026Z,102794.98
2018-04-19T05:54:52.991Z,102793.67
2018-04-19T05:57:18.980Z,102787.53
2018-04-19T05:59:44.856Z,102790.19
2018-04-19T06:02:10.742Z,102793.26
2018-04-19T06:04:36.652Z,102790.18
2018-04-19T06:07:03.356Z,102793.27
2018-04-19T06:09:29.316Z,102788.34
2018-04-19T06:11:55.622Z,102793.57
2018-04-19T06:14:21.491Z,102789.13
2018-04-19T06:16:47.366Z,102782.42
2018-04-19T06:19:13.364Z,102782.37
2018-04-19T06:21:39.300Z,102778.30
2018-04-19T06:24:05.179Z,102785.72
2018-04-19T06:26:31.128Z,102792.66
2018-04-19T06:28:57.011Z,102785.90
2018-04-19T06:31:22.984Z,102785.28
2018-04-19T06:33:48.951Z,102779.44
2018-04-19T06:36:14.816Z,102785.56
2018-04-19T06:38:40.686Z,102781.39
2018-04-19T06:41:06.626Z,102781.70
2018-04-19T06:43:32.593Z,102782.53
2018-04-19T06:45:58.532Z,102789.31
2018-04-19T06:48:24.476Z,102794.20
2018-04-19T06:50:50.365Z,102792.52
2018-04-19T06:53:16.239Z,102784.81
2018-04-19T06:55:42.223Z,102786.20
2018-04-19T06:58:08.155Z,102787.95
2018-04-19T07:00:34.012Z,102780.94
2018-04-19T07:03:00.228Z,102791.32
2018-04-19T07:05:26.099Z,102788.98
2018-04-19T07:07:52.055Z,102785.78
2018-04-19T07:10:18.040Z,102789.77
2018-04-19T07:12:43.901Z,102789.02
2018-04-19T07:15:09.766Z,102795.89
2018-04-19T07:17:35.681Z,102797.58
2018-04-19T07:20:01.651Z,102798.89
2018-04-19T07:22:27.680Z,102795.23
2018-04-19T07:24:54.676Z,102795.02
2018-04-19T07:27:20.587Z,102798.88
2018-04-19T07:29:46.791Z,102783.02
2018-04-19T07:32:13.885Z,102794.92
2018-04-19T07:34:39.778Z,102796.34
2018-04-19T07:37:06.084Z,102800.20
2018-04-19T07:39:31.999Z,102796.16
2018-04-19T07:41:58.182Z,102787.88
2018-04-19T07:44:24.149Z,102792.31
2018-04-19T07:46:50.096Z,102795.61
2018-04-19T07:49:16.396Z,102794.56
2018-04-19T07:51:42.324Z,102797.11
2018-04-19T07:54:08.256Z,102798.06
2018-04-19T07:56:34.209Z,102802.48
2018-04-19T07:59:00.558Z,102795.63
2018-04-19T08:01:27.083Z,102797.14
2018-04-19T08:03:53.242Z,102793.94
2018-04-19T08:06:19.139Z,102802.52
2018-04-19T08:08:45.162Z,102800.89
2018-04-19T08:11:11.144Z,102803.20
2018-04-19T08:13:36.997Z,102797.08
2018-04-19T08:16:02.948Z,102802.31
2018-04-19T08:18:28.839Z,102803.83
2018-04-19T08:20:54.800Z,102804.52
2018-04-19T08:23:21.073Z,102800.22
2018-04-19T08:25:46.944Z,102811.28
2018-04-19T08:28:12.824Z,102805.28
2018-04-19T08:30:38.740Z,102804.81
2018-04-19T08:33:04.705Z,102804.86
2018-04-19T08:35:30.683Z,102804.21
2018-04-19T08:37:56.983Z,102808.53
2018-04-19T08:40:23.161Z,102811.41
2018-04-19T08:42:49.062Z,102804.20
2018-04-19T08:45:15.381Z,102807.13
2018-04-19T08:47:41.318Z,102807.25
2018-04-19T08:50:07.184Z,102810.60
2018-04-19T08:52:33.123Z,102799.45
2018-04-19T08:54:59.032Z,102797.25
2018-04-19T08:57:25.007Z,102798.97
2018-04-19T08:59:51.000Z,102802.03
2018-04-19T09:02:16.858Z,102795.47
2018-04-19T09:04:43.797Z,102799.05
2018-04-19T09:07:09.707Z,102799.83
2018-04-19T09:09:35.743Z,102799.75
2018-04-19T09:12:01.670Z,102802.34
2018-04-19T09:14:27.592Z,102799.05
2018-04-19T09:16:53.536Z,102801.00
2018-04-19T09:22:08.440Z,102804.56
2018-04-19T09:24:34.308Z,102795.62
2018-04-19T09:27:00.176Z,102803.80
2018-04-19T09:29:26.091Z,102798.95
2018-04-19T09:31:51.971Z,102799.05
2018-04-19T09:34:17.979Z,102803.40
2018-04-19T09:36:43.899Z,102801.22
2018-04-19T09:39:09.763Z,102807.48
2018-04-19T09:41:35.645Z,102804.92
2018-04-19T09:44:01.564Z,102802.25
2018-04-19T09:46:27.572Z,102803.91
2018-04-19T09:48:53.445Z,102800.13
2018-04-19T09:51:22.443Z,102796.27
2018-04-19T09:53:48.386Z,102798.92
2018-04-19T09:56:14.223Z,102797.19
2018-04-19T09:58:40.308Z,102800.41
2018-04-19T10:01:08.123Z,102797.57
2018-04-19T10:03:40.153Z,102797.47
2018-04-19T10:06:07.980Z,102795.18
2018-04-19T10:08:34.927Z,102792.92
2018-04-19T10:11:00.987Z,102799.77
2018-04-19T10:13:26.875Z,102790.39
2018-04-19T10:15:52.781Z,102789.67
2018-04-19T10:18:18.715Z,102789.53
2018-04-19T10:20:44.583Z,102793.64
2018-04-19T10:23:10.599Z,102787.09
2018-04-19T10:25:36.561Z,102783.00
2018-04-19T10:28:02.423Z,102789.66
2018-04-19T10:30:29.157Z,102779.84
2018-04-19T10:32:55.086Z,102780.02
2018-04-19T10:35:21.096Z,102774.59
2018-04-19T10:37:46.957Z,102780.19
2018-04-19T10:40:12.877Z,102780.67
2018-04-19T10:42:38.755Z,102774.84
2018-04-19T10:45:04.645Z,102770.97
2018-04-19T10:47:30.700Z,102767.16
2018-04-19T10:49:56.819Z,102764.84
2018-04-19T10:52:22.689Z,102769.37
2018-04-19T10:54:48.589Z,102761.07
2018-04-19T10:57:14.456Z,102755.48
2018-04-19T10:59:41.278Z,102757.09
2018-04-19T11:02:07.198Z,102753.19
2018-04-19T11:04:33.099Z,102752.44
2018-04-19T11:06:59.011Z,102754.31
2018-04-19T11:09:27.007Z,102749.62
2018-04-19T11:11:53.036Z,102747.77
2018-04-19T11:14:19.956Z,102744.58
2018-04-19T11:16:45.876Z,102740.98
2018-04-19T11:19:11.756Z,102740.14
2018-04-19T11:21:37.736Z,102737.13
2018-04-19T11:24:03.815Z,102729.00
2018-04-19T11:26:29.750Z,102728.06
2018-04-19T11:28:55.629Z,102721.24
2018-04-19T11:31:21.681Z,102724.49
2018-04-19T11:33:48.671Z,102719.26
2018-04-19T11:36:14.806Z,102718.89
2018-04-19T11:38:41.168Z,102720.02
2018-04-19T11:41:07.036Z,102717.93
2018-04-19T11:43:32.956Z,102721.13
2018-04-19T11:45:58.859Z,102716.91
2018-04-19T11:48:24.876Z,102708.09
2018-04-19T11:50:54.683Z,102707.35
2018-04-19T11:53:20.595Z,102707.45
2018-04-19T11:55:46.458Z,102704.78
2018-04-19T11:58:12.326Z,102709.03
2018-04-19T12:00:38.386Z,102705.02
2018-04-19T12:03:04.270Z,102697.91
2018-04-19T12:05:30.178Z,102697.98
2018-04-19T12:07:56.095Z,102694.67
2018-04-19T12:10:21.984Z,102695.58
2018-04-19T12:12:48.025Z,102693.08
2018-04-19T12:15:13.981Z,102686.98
2018-04-19T12:17:39.855Z,102694.23
2018-04-19T12:20:05.762Z,102691.18
2018-04-19T12:22:31.673Z,102692.58
2018-04-19T12:24:57.921Z,102692.42
2018-04-19T12:27:23.811Z,102689.05
2018-04-19T12:29:50.664Z,102682.81
2018-04-19T12:32:16.567Z,102686.01
2018-04-19T12:34:42.464Z,102682.73
2018-04-19T12:37:08.607Z,102679.62
2018-04-19T12:39:34.489Z,102670.83
2018-04-19T12:42:00.376Z,102671.81
2018-04-19T12:44:26.295Z,102665.22
2018-04-19T12:46:52.179Z,102662.43
2018-04-19T12:49:18.199Z,102658.23
2018-04-19T12:51:44.100Z,102655.19
2018-04-19T12:54:10.044Z,102653.84
2018-04-19T12:56:35.915Z,102659.36
2018-04-19T12:59:01.831Z,102654.97
2018-04-19T13:01:28.613Z,102652.60
2018-04-19T13:03:54.475Z,102653.19
2018-04-19T13:06:20.387Z,102648.61
2018-04-19T13:08:46.263Z,102647.07
2018-04-19T13:11:12.183Z,102641.20
2018-04-19T13:13:38.256Z,102639.39
2018-04-19T13:16:04.156Z,102635.95
2018-04-19T13:18:30.035Z,102628.44
2018-04-19T13:20:55.992Z,102635.55
2018-04-19T13:23:21.868Z,102622.97
2018-04-19T13:25:48.040Z,102621.05
2018-04-19T13:28:13.893Z,102617.05
2018-04-19T13:30:39.812Z,102615.67
2018-04-19T13:33:05.680Z,102610.75
2018-04-19T13:35:31.646Z,102609.77
2018-04-19T13:37:57.671Z,102601.44
2018-04-19T13:40:24.649Z,102600.31
2018-04-19T13:42:50.979Z,102606.34
2018-04-19T13:45:16.862Z,102599.55
2018-04-19T13:47:42.759Z,102594.81
2018-04-19T13:50:08.843Z,102594.64
2018-04-19T13:52:34.724Z,102591.11
2018-04-19T13:55:00.638Z,102587.21
2018-04-19T13:57:26.583Z,102590.81
2018-04-19T13:59:52.525Z,102585.98
2018-04-19T14:02:18.540Z,102584.38
2018-04-19T14:04:44.439Z,102580.34
2018-04-19T14:07:11.231Z,102578.59
2018-04-19T14:09:37.139Z,102566.66
2018-04-19T14:12:03.064Z,102570.75
2018-04-19T14:14:29.552Z,102571.28
2018-04-19T14:16:55.436Z,102568.20
2018-04-19T14:19:21.357Z,102566.69
2018-04-19T14:21:47.237Z,102561.08
2018-04-19T14:24:13.147Z,102561.06
2018-04-19T14:26:39.209Z,102553.91
2018-04-19T14:29:05.072Z,102547.94
2018-04-19T14:31:30.978Z,102551.81
2018-04-19T14:33:56.896Z,102556.94
2018-04-19T14:36:22.772Z,102540.20
2018-04-19T14:38:48.808Z,102553.43
2018-04-19T14:41:14.881Z,102545.36
2018-04-19T14:43:40.859Z,102544.80
2018-04-19T14:46:06.765Z,102541.84
2018-04-19T14:48:32.677Z,102546.61
2018-04-19T14:50:58.722Z,102548.27
2018-04-19T14:53:24.585Z,102542.53
2018-04-19T14:55:50.495Z,102547.58
2018-04-19T14:58:16.358Z,102537.15
2018-04-19T15:00:42.284Z,102543.05
2018-04-19T15:03:08.647Z,102539.84
2018-04-19T15:05:34.544Z,102536.95
2018-04-19T15:08:00.428Z,102531.37
2018-04-19T15:10:26.364Z,102533.32
2018-04-19T15:12:52.286Z,102529.38
2018-04-19T15:15:18.323Z,102534.33
2018-04-19T15:17:44.230Z,102525.50
2018-04-19T15:20:10.101Z,102533.86
2018-04-19T15:22:35.979Z,102524.93
2018-04-19T15:25:01.934Z,102523.83
2018-04-19T15:27:27.933Z,102522.03
2018-04-19T15:29:53.829Z,102520.31
2018-04-19T15:32:19.798Z,102521.42
2018-04-19T15:34:45.692Z,102513.48
2018-04-19T15:37:11.559Z,102516.97
2018-04-19T15:39:37.640Z,102518.91
2018-04-19T15:42:03.517Z,102523.82
2018-04-19T15:44:29.408Z,102520.95
2018-04-19T15:46:55.331Z,102524.48
2018-04-19T15:49:21.236Z,102516.02
2018-04-19T15:51:47.243Z,102514.11
2018-04-19T15:54:13.156Z,102515.58
2018-04-19T15:56:39.053Z,102508.96
2018-04-19T15:59:04.952Z,102506.28
2018-04-19T16:01:30.896Z,102505.59
2018-04-19T16:03:56.895Z,102506.84
2018-04-19T16:06:22.768Z,102498.31
2018-04-19T16:08:48.705Z,102500.18
2018-04-19T16:11:14.656Z,102499.58
2018-04-19T16:13:40.502Z,102498.50
2018-04-19T16:16:06.588Z,102496.84
2018-04-19T16:18:32.447Z,102495.08
2018-04-19T16:20:59.395Z,102498.50
2018-04-19T16:23:25.293Z,102491.55
2018-04-19T16:25:51.180Z,102486.98
2018-04-19T16:28:17.194Z,102485.64
2018-04-19T16:30:43.106Z,102492.28
2018-04-19T16:33:08.987Z,102490.92
2018-04-19T16:35:34.884Z,102488.12
2018-04-19T16:38:01.107Z,102486.48
2018-04-19T16:40:27.188Z,102486.92
2018-04-19T16:42:53.044Z,102490.42
2018-04-19T16:45:19.001Z,102484.54
2018-04-19T16:47:44.871Z,102478.73
2018-04-19T16:50:10.781Z,102476.64
2018-04-19T16:52:36.850Z,102476.60
2018-04-19T16:55:02.752Z,102478.16
2018-04-19T16:57:29.701Z,102482.44
2018-04-19T16:59:55.617Z,102477.30
2018-04-19T17:02:21.505Z,102471.88
2018-04-19T17:04:47.528Z,102469.25
2018-04-19T17:07:13.455Z,102472.69
2018-04-19T17:09:39.355Z,102470.16
2018-04-19T17:12:05.247Z,102470.52
2018-04-19T17:14:31.168Z,102474.19
2018-04-19T17:16:57.201Z,102473.75
2018-04-19T17:19:23.109Z,102473.38
2018-04-19T17:21:49.098Z,102475.72
2018-04-19T17:24:14.961Z,102469.91
2018-04-19T17:26:40.856Z,102466.31
2018-04-19T17:29:07.748Z,102469.50
2018-04-19T17:31:33.682Z,102470.87
2018-04-19T17:33:59.577Z,102464.72
2018-04-19T17:36:25.484Z,102466.16
2018-04-19T17:38:52.370Z,102467.11
2018-04-19T17:41:18.423Z,102459.19
2018-04-19T17:43:44.359Z,102466.38
2018-04-19T17:46:10.233Z,102462.80
2018-04-19T17:48:36.122Z,102454.84
2018-04-19T17:51:02.057Z,102458.86
2018-04-19T17:53:28.088Z,102456.70
2018-04-19T17:55:53.949Z,102453.66
2018-04-19T17:58:19.851Z,102459.02
2018-04-19T18:00:45.782Z,102464.78
2018-04-19T18:03:11.655Z,102455.97
2018-04-19T18:05:37.736Z,102460.55
2018-04-19T18:08:03.610Z,102462.79
2018-04-19T18:10:29.485Z,102463.30
2018-04-19T18:12:55.771Z,102457.55
2018-04-19T18:15:21.655Z,102463.28
2018-04-19T18:17:47.660Z,102460.06
2018-04-19T18:20:14.648Z,102459.55
2018-04-19T18:22:40.525Z,102462.97
2018-04-19T18:25:06.412Z,102465.98
2018-04-19T18:27:32.339Z,102466.19
2018-04-19T18:29:58.331Z,102471.76
2018-04-19T18:32:24.200Z,102466.63
2018-04-19T18:34:50.123Z,102470.87
2018-04-19T18:37:16.007Z,102475.12
2018-04-19T18:39:41.884Z,102474.26
2018-04-19T18:42:07.950Z,102473.77
2018-04-19T18:44:33.927Z,102474.05
2018-04-19T18:46:59.787Z,102476.55
2018-04-19T18:49:26.305Z,102474.63
2018-04-19T18:51:52.184Z,102477.03
2018-04-19T18:54:18.320Z,102474.97
2018-04-19T18:56:44.251Z,102479.62
2018-04-19T18:59:10.145Z,102481.92
2018-04-19T19:01:36.560Z,102479.44
2018-04-19T19:04:02.652Z,102482.22
2018-04-19T19:06:29.607Z,102478.74
2018-04-19T19:08:55.497Z,102485.52
2018-04-19T19:11:21.651Z,102477.77
2018-04-19T19:13:47.617Z,102476.48
2018-04-19T19:16:13.505Z,102480.97
2018-04-19T19:18:52.200Z,102481.97
2018-04-19T19:21:18.199Z,102478.92
2018-04-19T19:23:44.060Z,102482.11
2018-04-19T19:26:09.983Z,102479.55
2018-04-19T19:28:35.968Z,102471.63
2018-04-19T19:31:02.572Z,102476.98
2018-04-19T19:33:28.504Z,102477.53
2018-04-19T19:35:55.190Z,102481.16
2018-04-19T19:38:21.146Z,102479.94
2018-04-19T19:40:47.053Z,102479.61
2018-04-19T19:43:13.068Z,102485.06
2018-04-19T19:45:39.148Z,102483.89
2018-04-19T19:48:05.133Z,102484.41
2018-04-19T19:50:31.011Z,102488.06
2018-04-19T19:52:56.922Z,102488.56
2018-04-19T19:55:23.045Z,102492.20
2018-04-19T19:57:48.900Z,102485.69
2018-04-19T20:00:14.783Z,102490.67
2018-04-19T20:02:40.701Z,102494.33
2018-04-19T20:05:06.581Z,102492.30
2018-04-19T20:07:32.578Z,102494.59
2018-04-19T20:09:58.516Z,102496.47
2018-04-19T20:12:24.391Z,102495.30
2018-04-19T20:14:50.263Z,102494.13
2018-04-19T20:17:16.205Z,102490.70
2018-04-19T20:19:42.244Z,102493.47
2018-04-19T20:22:08.131Z,102494.48
2018-04-19T20:24:34.036Z,102497.70
2018-04-19T20:26:59.932Z,102484.94
2018-04-19T20:29:25.808Z,102484.97
2018-04-19T20:31:51.897Z,102487.27
2018-04-19T20:34:17.781Z,102477.56
2018-04-19T20:36:43.666Z,102478.45
2018-04-19T20:39:09.580Z,102483.86
2018-04-19T20:41:36.513Z,102481.29
2018-04-19T20:44:02.552Z,102480.09
2018-04-19T20:46:28.472Z,102476.17
2018-04-19T20:48:54.347Z,102473.10
2018-04-19T20:51:20.207Z,102476.63
2018-04-19T20:53:46.153Z,102478.41
2018-04-19T20:56:12.192Z,102470.45
2018-04-19T20:58:38.084Z,102462.94
2018-04-19T21:01:04.015Z,102464.73
2018-04-19T21:03:29.875Z,102467.50
2018-04-19T21:05:55.772Z,102466.72
2018-04-19T21:08:21.837Z,102459.19
2018-04-19T21:10:47.704Z,102463.64
2018-04-19T21:13:13.600Z,102460.56
2018-04-19T21:15:39.519Z,102461.94
2018-04-19T21:18:05.399Z,102454.95
2018-04-19T21:20:31.415Z,102456.38
2018-04-19T21:22:57.423Z,102457.75
2018-04-19T21:25:23.291Z,102455.12
2018-04-19T21:27:49.175Z,102455.64
2018-04-19T21:30:15.140Z,102449.52
2018-04-19T21:32:41.483Z,102443.41
2018-04-19T21:35:07.604Z,102444.33
2018-04-19T21:37:34.867Z,102440.00
2018-04-19T21:40:01.287Z,102437.84
2018-04-19T21:42:27.292Z,102439.69
2018-04-19T21:44:53.335Z,102445.46
2018-04-19T21:47:19.567Z,102441.13
2018-04-19T21:49:45.849Z,102435.88
2018-04-19T21:52:12.357Z,102439.03
2018-04-19T21:54:38.260Z,102434.64
2018-04-19T21:57:04.635Z,102430.76
2018-04-19T21:59:31.119Z,102426.83
2018-04-19T22:01:57.522Z,102419.83
2018-04-19T22:04:23.389Z,102420.31
2018-04-19T22:06:49.417Z,102417.70
2018-04-19T22:09:15.437Z,102418.62
2018-04-19T22:11:41.295Z,102414.23
2018-04-19T22:14:07.237Z,102416.92
2018-04-19T22:16:33.113Z,102413.85
2018-04-19T22:18:58.973Z,102401.98
2018-04-19T22:21:25.022Z,102400.70
2018-04-19T22:23:50.880Z,102402.94
2018-04-19T22:26:16.752Z,102398.99
2018-04-19T22:28:42.987Z,102398.16
2018-04-19T22:31:08.864Z,102401.28
2018-04-19T22:33:34.916Z,102403.10
2018-04-19T22:36:00.825Z,102404.02
2018-04-19T22:38:26.694Z,102396.98
2018-04-19T22:40:52.555Z,102405.41
2018-04-19T22:43:18.495Z,102401.45
2018-04-19T22:45:44.512Z,102397.95
2018-04-19T22:48:10.388Z,102394.43
2018-04-19T22:50:36.307Z,102398.02
2018-04-19T22:53:02.179Z,102395.38
2018-04-19T22:55:28.039Z,102394.53
2018-04-19T22:57:54.083Z,102389.30
2018-04-19T23:00:19.951Z,102390.64
2018-04-19T23:02:45.866Z,102394.66
2018-04-19T23:05:12.768Z,102401.73
2018-04-19T23:07:38.636Z,102396.07
2018-04-19T23:10:04.651Z,102399.16
2018-04-19T23:12:30.573Z,102394.77
2018-04-19T23:14:56.441Z,102399.63
2018-04-19T23:17:22.300Z,102396.15
2018-04-19T23:19:48.372Z,102398.38
2018-04-19T23:22:14.428Z,102390.50
2018-04-19T23:24:40.300Z,102390.08
2018-04-19T23:27:06.231Z,102385.73
2018-04-19T23:29:32.124Z,102386.19
2018-04-19T23:31:58.003Z,102384.48
2018-04-19T23:34:24.046Z,102383.17
2018-04-19T23:36:49.947Z,102377.45
2018-04-19T23:39:15.848Z,102374.39
2018-04-19T23:41:41.775Z,102372.24
2018-04-19T23:44:07.630Z,102364.77
2018-04-19T23:46:33.631Z,102364.78
2018-04-19T23:48:59.575Z,102366.58
2018-04-19T23:51:25.436Z,102359.99
2018-04-19T23:53:51.308Z,102365.33
2018-04-19T23:56:17.236Z,102367.09
2018-04-19T23:58:43.267Z,102369.73
